Scroll down
FLIGHT INFORMATION
Nippon Cargo Airlines

NCA129

At Arrival Gate

RJAA
 ZSPD
DATE: 2022-01-29
GATE: 805
GATE DEPARTURE: 02:00
TAKEOFF: 02:14
DATE: 2022-01-29
GATE:  -
LANDING: 05:17
GATE ARRIVAL: 05:21
FLIGHT DATA
Crew: 
Speed: 
988 kph
Altitude: 
36,021 ft
Stage Length: 
1,796.5 km
Block Time: 
3.3 hrs
Flight Time: 
3.1 hrs
Fuel Used: 
37,302 kg
Cleared Route: RJAA ASPEN A6R11 A6R13 A6R14 TETRA HME SZE GAKKI KIKOL MORIZ KOMAK KCC BIWWA ADGUN MIDER SANDA HYOGO ASANO OLIVE BIZEN PIONE DANGO WASYU BINGO BAMBO ONDOC HATIA BALIE CHINU ISAKY FUE POTET ONIKU NIRAT PONIK SADLI LAMEN AKARA DUMET ZSPD
TRACK DATA
50,000 ft 1,000 kts
AIRCRAFT INFO AND CUMULATIVE STATS
Aircraft Type: 
B744F
Registration: 
SELCAL: 
HPAE
MSN/LN: 
34283 / 1384
Operator: 
Total Flights: 
2
Total Block Time: 
4.7 hrs
Total Flight Time: 
4.3 hrs
Total Fuel Used: 
48,939 kg
DATALINK LOG | Newest first | Current as of: 2023-01-30 09:17:49
LABEL SEQUENCE CONTENT Dn/Up
QD311105:21 32.2▼ Dn
QC270705:17▼ Dn
QB241802:14▼ Dn
QA090702:00 114.6▼ Dn
A30415CLEARED TO ZSPD VIA TETRA8 SZE Y295 KCC Y28 ONDOC Y452 BALIE Y60 POTET A593 DUMET DUM91A. SQUAWK 3704.▲ Up
2U0410ZSPD 290230Z 36008MPS CAVOK 05/01 Q1025 NOSIG▲ Up
2U0409RJAA 290230Z 10004KT 070V150 9999 FEW020 BKN050 BKN070 07/M05 Q1012 NOSIG RMK 1CU020 5SC050 7AC070 A2989▲ Up
2S0409RJAA ZSPD▼ Dn
B30402RJAA ZSPD B ▼ Dn
Q00301[LINK ACK]▲ Up
Q00301[LINK TEST]▼ Dn


AIRCRAFT HISTORY
FLIGHT DATE FLIGHT NO. ORIGIN DESTINATION CLEARED ROUTE BLOCK TIME FLIGHT TIME FUEL USED PILOT
2022-08-17NCA9817ZSPD RCTP ZSPD MIGOL KASKA WASPY BERBA FITCH BESTO COPRA BAKER RCTP1.4 hrs1.3 hrs25,655 lbAllan Burek
2022-01-29NCA129RJAA ZSPD RJAA ASPEN A6R11 A6R13 A6R14 TETRA HME SZE GAKKI KIKOL MORIZ KOMAK KCC BIWWA ADGUN MIDER SANDA HYOGO ASANO OLIVE BIZEN PIONE DANGO WASYU BINGO BAMBO ONDOC HATIA BALIE CHINU ISAKY FUE POTET ONIKU NIRAT PONIK SADLI LAMEN AKARA DUMET ZSPD3.3 hrs3.1 hrs82,237 lbMichael Roth